| Back to River Map | <<< Previous Forecast Point | | | Next Forecast Point >>> | Printer Version | Graph Version |  |
|
SPRAGUE RIVER - BEATTY (BTYO3)
| Latitude: 42.45º N | Longitude: 121.24º W | Elevation: 4305 Feet | | Forecast Type: Official Location |
| Location: Klamath County in Oregon | Bulletin Group: North Coast | River Group: Klamath |
| Issuance Time: | May 03 2026 at 8:48 AM PDT | Next Issuance: | May 04 2026 at 9:00 AM PDT
| |
| Action/Monitor: 7.5 Feet | Minor Flood: 8.5 Feet | Moderate Flood: 11.0 Feet | Major Flood: 12.0 Feet |
# Tabular Observed and Forecast Hydrograph Information
#
# Location: Sprague River - Beatty (BTYO3)
#
# File Generation Time: 05/03/2026 at 08:48 AM PDT
# Data Interval: 1 Hour
#
# Most Recent Date & Time of Maximum Observed: 04/28/2026 at 03:00 PM PDT
# Maximum Observed Stage: 2.93 Feet
# Maximum Observed Flow: 234 cfs
#
# Earliest Date & Time of Maximum Forecast: 05/07/2026 at 11:00 PM PDT
# Maximum Forecast Stage: 2.85 Feet
# Maximum Forecast Flow: 217 cfs
#
# OBSERVED
#
# Date & Time (Local) Stage (Feet) Flow (cfs) Trend Observed Status
# ---------------------------------------------------------------------------------
04/28/2026 08 AM PDT 2.92 232 Normal
04/28/2026 09 AM PDT 2.92 232 0 Normal
04/28/2026 10 AM PDT 2.92 232 0 Normal
04/28/2026 11 AM PDT 2.92 232 0 Normal
04/28/2026 12 PM PDT 2.92 232 0 Normal
04/28/2026 01 PM PDT 2.92 232 0 Normal
04/28/2026 02 PM PDT 2.92 232 0 Normal
04/28/2026 03 PM PDT 2.93 234 + Normal
04/28/2026 04 PM PDT 2.92 232 - Normal
04/28/2026 05 PM PDT 2.92 232 0 Normal
04/28/2026 06 PM PDT 2.92 232 0 Normal
04/28/2026 07 PM PDT 2.92 232 0 Normal
04/28/2026 08 PM PDT 2.91 230 - Normal
04/28/2026 09 PM PDT 2.90 228 - Normal
04/28/2026 10 PM PDT 2.90 228 0 Normal
04/28/2026 11 PM PDT 2.89 225 - Normal
04/29/2026 12 AM PDT 2.87 221 - Normal
04/29/2026 01 AM PDT 2.86 219 - Normal
04/29/2026 02 AM PDT 2.85 217 - Normal
04/29/2026 03 AM PDT 2.84 215 - Normal
04/29/2026 04 AM PDT 2.83 212 - Normal
04/29/2026 05 AM PDT 2.83 212 0 Normal
04/29/2026 06 AM PDT 2.83 212 0 Normal
04/29/2026 07 AM PDT 2.83 212 0 Normal
04/29/2026 08 AM PDT 2.83 212 0 Normal
04/29/2026 09 AM PDT 2.83 212 0 Normal
04/29/2026 10 AM PDT 2.83 212 0 Normal
04/29/2026 11 AM PDT 2.84 215 + Normal
04/29/2026 12 PM PDT 2.84 215 0 Normal
04/29/2026 01 PM PDT 2.84 215 0 Normal
04/29/2026 02 PM PDT 2.84 215 0 Normal
04/29/2026 03 PM PDT 2.84 215 0 Normal
04/29/2026 04 PM PDT 2.84 215 0 Normal
04/29/2026 05 PM PDT 2.83 212 - Normal
04/29/2026 06 PM PDT 2.83 212 0 Normal
04/29/2026 07 PM PDT 2.83 212 0 Normal
04/29/2026 08 PM PDT 2.84 215 + Normal
04/29/2026 09 PM PDT 2.83 212 - Normal
04/29/2026 10 PM PDT 2.83 212 0 Normal
04/29/2026 11 PM PDT 2.83 212 0 Normal
04/30/2026 12 AM PDT 2.83 212 0 Normal
04/30/2026 01 AM PDT 2.83 212 0 Normal
04/30/2026 02 AM PDT 2.83 212 0 Normal
04/30/2026 03 AM PDT 2.83 212 0 Normal
04/30/2026 04 AM PDT 2.83 212 0 Normal
04/30/2026 05 AM PDT 2.83 212 0 Normal
04/30/2026 06 AM PDT 2.83 212 0 Normal
04/30/2026 07 AM PDT 2.83 212 0 Normal
04/30/2026 08 AM PDT 2.83 212 0 Normal
04/30/2026 09 AM PDT 2.84 215 + Normal
04/30/2026 10 AM PDT 2.84 215 0 Normal
04/30/2026 11 AM PDT 2.84 215 0 Normal
04/30/2026 12 PM PDT 2.84 215 0 Normal
04/30/2026 01 PM PDT 2.84 215 0 Normal
04/30/2026 02 PM PDT 2.85 217 + Normal
04/30/2026 03 PM PDT 2.85 217 0 Normal
04/30/2026 04 PM PDT 2.85 217 0 Normal
04/30/2026 05 PM PDT 2.85 217 0 Normal
04/30/2026 06 PM PDT 2.85 217 0 Normal
04/30/2026 07 PM PDT 2.85 217 0 Normal
04/30/2026 08 PM PDT 2.85 217 0 Normal
04/30/2026 09 PM PDT 2.85 217 0 Normal
04/30/2026 10 PM PDT 2.85 217 0 Normal
04/30/2026 11 PM PDT 2.85 217 0 Normal
05/01/2026 12 AM PDT 2.85 217 0 Normal
05/01/2026 01 AM PDT 2.85 217 0 Normal
05/01/2026 02 AM PDT 2.85 217 0 Normal
05/01/2026 03 AM PDT 2.85 217 0 Normal
05/01/2026 04 AM PDT 2.85 217 0 Normal
05/01/2026 05 AM PDT 2.85 217 0 Normal
05/01/2026 06 AM PDT 2.85 217 0 Normal
05/01/2026 07 AM PDT 2.85 217 0 Normal
05/01/2026 08 AM PDT 2.85 217 0 Normal
05/01/2026 09 AM PDT 2.86 219 + Normal
05/01/2026 10 AM PDT 2.86 219 0 Normal
05/01/2026 11 AM PDT 2.85 217 - Normal
05/01/2026 12 PM PDT 2.85 217 0 Normal
05/01/2026 01 PM PDT 2.85 217 0 Normal
05/01/2026 02 PM PDT 2.85 217 0 Normal
05/01/2026 03 PM PDT 2.85 217 0 Normal
05/01/2026 04 PM PDT 2.85 217 0 Normal
05/01/2026 05 PM PDT 2.85 217 0 Normal
05/01/2026 06 PM PDT 2.85 217 0 Normal
05/01/2026 07 PM PDT 2.85 217 0 Normal
05/01/2026 08 PM PDT 2.85 217 0 Normal
05/01/2026 09 PM PDT 2.85 217 0 Normal
05/01/2026 10 PM PDT 2.85 217 0 Normal
05/01/2026 11 PM PDT 2.85 217 0 Normal
05/02/2026 12 AM PDT 2.85 217 0 Normal
05/02/2026 01 AM PDT 2.85 217 0 Normal
05/02/2026 02 AM PDT 2.85 217 0 Normal
05/02/2026 03 AM PDT 2.85 217 0 Normal
05/02/2026 04 AM PDT 2.85 217 0 Normal
05/02/2026 05 AM PDT 2.85 217 0 Normal
05/02/2026 06 AM PDT 2.85 217 0 Normal
05/02/2026 07 AM PDT 2.85 217 0 Normal
05/02/2026 08 AM PDT 2.84 215 - Normal
05/02/2026 09 AM PDT 2.85 217 + Normal
05/02/2026 10 AM PDT 2.85 217 0 Normal
05/02/2026 11 AM PDT 2.85 217 0 Normal
05/02/2026 12 PM PDT 2.84 215 - Normal
05/02/2026 01 PM PDT 2.84 215 0 Normal
05/02/2026 02 PM PDT 2.84 215 0 Normal
05/02/2026 03 PM PDT 2.84 215 0 Normal
05/02/2026 04 PM PDT 2.84 215 0 Normal
05/02/2026 05 PM PDT 2.84 215 0 Normal
05/02/2026 06 PM PDT 2.84 215 0 Normal
05/02/2026 07 PM PDT 2.84 215 0 Normal
05/02/2026 08 PM PDT 2.84 215 0 Normal
05/02/2026 09 PM PDT 2.84 215 0 Normal
05/02/2026 10 PM PDT 2.84 215 0 Normal
05/02/2026 11 PM PDT 2.85 217 + Normal
05/03/2026 12 AM PDT 2.85 217 0 Normal
05/03/2026 01 AM PDT 2.84 215 - Normal
05/03/2026 02 AM PDT 2.84 215 0 Normal
05/03/2026 03 AM PDT 2.85 217 + Normal
05/03/2026 04 AM PDT 2.85 217 0 Normal
05/03/2026 05 AM PDT 2.85 217 0 Normal
05/03/2026 06 AM PDT 2.85 217 0 Normal
05/03/2026 07 AM PDT 2.85 217 0 Normal
05/03/2026 08 AM PDT 2.85 217 0 Normal
#
# FORECAST
#
# Date & Time (Local) Stage (Feet) Flow (cfs) Trend Forecast Status
# ---------------------------------------------------------------------------------
05/03/2026 09 AM PDT 2.84 215 Normal
05/03/2026 10 AM PDT 2.84 215 0 Normal
05/03/2026 11 AM PDT 2.84 215 0 Normal
05/03/2026 12 PM PDT 2.84 215 0 Normal
05/03/2026 01 PM PDT 2.83 212 - Normal
05/03/2026 02 PM PDT 2.83 212 0 Normal
05/03/2026 03 PM PDT 2.83 212 0 Normal
05/03/2026 04 PM PDT 2.83 212 0 Normal
05/03/2026 05 PM PDT 2.83 212 0 Normal
05/03/2026 06 PM PDT 2.83 212 0 Normal
05/03/2026 07 PM PDT 2.83 212 0 Normal
05/03/2026 08 PM PDT 2.83 212 0 Normal
05/03/2026 09 PM PDT 2.83 212 0 Normal
05/03/2026 10 PM PDT 2.83 212 0 Normal
05/03/2026 11 PM PDT 2.83 212 0 Normal
05/04/2026 12 AM PDT 2.83 212 0 Normal
05/04/2026 01 AM PDT 2.83 212 0 Normal
05/04/2026 02 AM PDT 2.82 210 - Normal
05/04/2026 03 AM PDT 2.82 210 0 Normal
05/04/2026 04 AM PDT 2.82 210 0 Normal
05/04/2026 05 AM PDT 2.81 208 - Normal
05/04/2026 06 AM PDT 2.81 208 0 Normal
05/04/2026 07 AM PDT 2.81 208 0 Normal
05/04/2026 08 AM PDT 2.81 208 0 Normal
05/04/2026 09 AM PDT 2.81 208 0 Normal
05/04/2026 10 AM PDT 2.81 208 0 Normal
05/04/2026 11 AM PDT 2.81 208 0 Normal
05/04/2026 12 PM PDT 2.80 206 - Normal
05/04/2026 01 PM PDT 2.80 206 0 Normal
05/04/2026 02 PM PDT 2.80 206 0 Normal
05/04/2026 03 PM PDT 2.80 206 0 Normal
05/04/2026 04 PM PDT 2.80 206 0 Normal
05/04/2026 05 PM PDT 2.80 206 0 Normal
05/04/2026 06 PM PDT 2.80 206 0 Normal
05/04/2026 07 PM PDT 2.80 206 0 Normal
05/04/2026 08 PM PDT 2.81 208 + Normal
05/04/2026 09 PM PDT 2.81 208 0 Normal
05/04/2026 10 PM PDT 2.81 208 0 Normal
05/04/2026 11 PM PDT 2.81 208 0 Normal
05/05/2026 12 AM PDT 2.81 208 0 Normal
05/05/2026 01 AM PDT 2.81 208 0 Normal
05/05/2026 02 AM PDT 2.81 208 0 Normal
05/05/2026 03 AM PDT 2.81 208 0 Normal
05/05/2026 04 AM PDT 2.81 208 0 Normal
05/05/2026 05 AM PDT 2.81 208 0 Normal
05/05/2026 06 AM PDT 2.81 208 0 Normal
05/05/2026 07 AM PDT 2.81 208 0 Normal
05/05/2026 08 AM PDT 2.81 208 0 Normal
05/05/2026 09 AM PDT 2.81 208 0 Normal
05/05/2026 10 AM PDT 2.81 208 0 Normal
05/05/2026 11 AM PDT 2.81 208 0 Normal
05/05/2026 12 PM PDT 2.81 208 0 Normal
05/05/2026 01 PM PDT 2.81 208 0 Normal
05/05/2026 02 PM PDT 2.80 206 - Normal
05/05/2026 03 PM PDT 2.80 206 0 Normal
05/05/2026 04 PM PDT 2.80 206 0 Normal
05/05/2026 05 PM PDT 2.80 206 0 Normal
05/05/2026 06 PM PDT 2.81 208 + Normal
05/05/2026 07 PM PDT 2.81 208 0 Normal
05/05/2026 08 PM PDT 2.81 208 0 Normal
05/05/2026 09 PM PDT 2.82 210 + Normal
05/05/2026 10 PM PDT 2.82 210 0 Normal
05/05/2026 11 PM PDT 2.82 210 0 Normal
05/06/2026 12 AM PDT 2.82 210 0 Normal
05/06/2026 01 AM PDT 2.82 210 0 Normal
05/06/2026 02 AM PDT 2.82 210 0 Normal
05/06/2026 03 AM PDT 2.82 210 0 Normal
05/06/2026 04 AM PDT 2.82 210 0 Normal
05/06/2026 05 AM PDT 2.82 210 0 Normal
05/06/2026 06 AM PDT 2.82 210 0 Normal
05/06/2026 07 AM PDT 2.82 210 0 Normal
05/06/2026 08 AM PDT 2.82 210 0 Normal
05/06/2026 09 AM PDT 2.82 210 0 Normal
05/06/2026 10 AM PDT 2.82 210 0 Normal
05/06/2026 11 AM PDT 2.82 210 0 Normal
05/06/2026 12 PM PDT 2.82 210 0 Normal
05/06/2026 01 PM PDT 2.82 210 0 Normal
05/06/2026 02 PM PDT 2.82 210 0 Normal
05/06/2026 03 PM PDT 2.82 210 0 Normal
05/06/2026 04 PM PDT 2.82 210 0 Normal
05/06/2026 05 PM PDT 2.81 208 - Normal
05/06/2026 06 PM PDT 2.82 210 + Normal
05/06/2026 07 PM PDT 2.82 210 0 Normal
05/06/2026 08 PM PDT 2.83 212 + Normal
05/06/2026 09 PM PDT 2.83 212 0 Normal
05/06/2026 10 PM PDT 2.83 212 0 Normal
05/06/2026 11 PM PDT 2.83 212 0 Normal
05/07/2026 12 AM PDT 2.83 212 0 Normal
05/07/2026 01 AM PDT 2.83 212 0 Normal
05/07/2026 02 AM PDT 2.83 212 0 Normal
05/07/2026 03 AM PDT 2.83 212 0 Normal
05/07/2026 04 AM PDT 2.83 212 0 Normal
05/07/2026 05 AM PDT 2.83 212 0 Normal
05/07/2026 06 AM PDT 2.83 212 0 Normal
05/07/2026 07 AM PDT 2.83 212 0 Normal
05/07/2026 08 AM PDT 2.83 212 0 Normal
05/07/2026 09 AM PDT 2.83 212 0 Normal
05/07/2026 10 AM PDT 2.83 212 0 Normal
05/07/2026 11 AM PDT 2.83 212 0 Normal
05/07/2026 12 PM PDT 2.83 212 0 Normal
05/07/2026 01 PM PDT 2.83 212 0 Normal
05/07/2026 02 PM PDT 2.83 212 0 Normal
05/07/2026 03 PM PDT 2.83 212 0 Normal
05/07/2026 04 PM PDT 2.83 212 0 Normal
05/07/2026 05 PM PDT 2.83 212 0 Normal
05/07/2026 06 PM PDT 2.83 212 0 Normal
05/07/2026 07 PM PDT 2.83 212 0 Normal
05/07/2026 08 PM PDT 2.84 215 + Normal
05/07/2026 09 PM PDT 2.84 215 0 Normal
05/07/2026 10 PM PDT 2.84 215 0 Normal
05/07/2026 11 PM PDT 2.85 217 + Normal
05/08/2026 12 AM PDT 2.84 215 - Normal
05/08/2026 01 AM PDT 2.84 215 0 Normal
05/08/2026 02 AM PDT 2.84 215 0 Normal
05/08/2026 03 AM PDT 2.84 215 0 Normal
05/08/2026 04 AM PDT 2.84 215 0 Normal
05/08/2026 05 AM PDT 2.84 215 0 Normal
#
# NOTE 1: Stages are rounded to the nearest hundredth (.01) of a foot.
# NOTE 2: Flows are rounded to the nearest (1) cfs.
# NOTE 3: Trends are determined using hourly change in unrounded stage and flow.
# NOTE 4: Maximum Values are determined using unrounded stage and flow.
|